createdAt,value
2024-02-23T00:02:06.005Z,98.08
2024-02-23T00:04:32.485Z,99.35
2024-02-23T00:06:59.353Z,98.09
2024-02-23T00:09:25.792Z,96.35
2024-02-23T00:11:52.266Z,97.55
2024-02-23T00:14:19.785Z,100.00
2024-02-23T00:16:46.314Z,100.00
2024-02-23T00:19:13.169Z,100.00
2024-02-23T00:21:40.749Z,100.00
2024-02-23T00:24:07.632Z,99.11
2024-02-23T00:26:34.101Z,99.30
2024-02-23T00:29:00.578Z,100.00
2024-02-23T00:31:27.017Z,100.00
2024-02-23T00:33:53.446Z,100.00
2024-02-23T00:36:19.889Z,100.00
2024-02-23T00:38:46.336Z,100.00
2024-02-23T00:41:12.785Z,100.00
2024-02-23T00:43:42.588Z,100.00
2024-02-23T00:46:09.669Z,100.00
2024-02-23T00:48:36.319Z,100.00
2024-02-23T00:51:03.955Z,100.00
2024-02-23T00:53:32.919Z,100.00
2024-02-23T00:55:59.758Z,100.00
2024-02-23T00:58:26.128Z,100.00
2024-02-23T01:00:52.532Z,100.00
2024-02-23T01:03:19.043Z,100.00
2024-02-23T01:09:45.325Z,100.00
2024-02-23T01:12:11.786Z,100.00
2024-02-23T01:14:38.264Z,100.00
2024-02-23T01:17:04.651Z,100.00
2024-02-23T01:19:31.055Z,100.00
2024-02-23T01:22:01.164Z,100.00
2024-02-23T01:24:31.295Z,100.00
2024-02-23T01:26:58.797Z,100.00
2024-02-23T01:29:27.521Z,100.00
2024-02-23T01:31:55.524Z,100.00
2024-02-23T01:34:22.925Z,100.00
2024-02-23T01:36:49.874Z,100.00
2024-02-23T01:39:16.218Z,100.00
2024-02-23T01:41:44.841Z,100.00
2024-02-23T01:44:12.016Z,100.00
2024-02-23T01:46:38.458Z,100.00
2024-02-23T01:49:06.082Z,100.00
2024-02-23T01:51:32.754Z,100.00
2024-02-23T01:53:59.132Z,100.00
2024-02-23T01:56:25.841Z,100.00
2024-02-23T01:58:53.622Z,100.00
2024-02-23T02:01:20.235Z,100.00
2024-02-23T02:03:46.641Z,100.00
2024-02-23T02:06:13.386Z,100.00
2024-02-23T02:08:39.974Z,100.00
2024-02-23T02:11:06.502Z,100.00
2024-02-23T02:13:32.981Z,100.00
2024-02-23T02:16:02.071Z,100.00
2024-02-23T02:18:28.806Z,100.00
2024-02-23T02:20:57.954Z,100.00
2024-02-23T02:23:25.425Z,100.00
2024-02-23T02:25:58.863Z,100.00
2024-02-23T02:28:26.180Z,100.00
2024-02-23T02:30:57.078Z,100.00
2024-02-23T02:33:23.901Z,100.00
2024-02-23T02:35:51.014Z,100.00
2024-02-23T02:38:17.743Z,100.00
2024-02-23T02:40:44.230Z,100.00
2024-02-23T02:43:10.619Z,100.00
2024-02-23T02:45:36.991Z,100.00
2024-02-23T02:48:04.100Z,100.00
2024-02-23T02:50:30.669Z,100.00
2024-02-23T02:52:57.540Z,100.00
2024-02-23T02:55:24.035Z,100.00
2024-02-23T02:57:50.380Z,100.00
2024-02-23T03:00:17.224Z,100.00
2024-02-23T03:02:43.651Z,100.00
2024-02-23T03:05:10.161Z,100.00
2024-02-23T03:07:36.920Z,100.00
2024-02-23T03:10:03.604Z,100.00
2024-02-23T03:12:29.991Z,100.00
2024-02-23T03:14:57.049Z,100.00
2024-02-23T03:17:24.199Z,100.00
2024-02-23T03:19:53.616Z,100.00
2024-02-23T03:22:20.106Z,100.00
2024-02-23T03:24:46.506Z,100.00
2024-02-23T03:27:12.945Z,100.00
2024-02-23T03:29:39.849Z,100.00
2024-02-23T03:32:07.137Z,100.00
2024-02-23T03:34:33.706Z,100.00
2024-02-23T03:37:01.264Z,100.00
2024-02-23T03:39:27.664Z,100.00
2024-02-23T03:41:54.004Z,100.00
2024-02-23T03:44:20.432Z,100.00
2024-02-23T03:46:46.908Z,100.00
2024-02-23T03:49:13.346Z,100.00
2024-02-23T03:51:40.602Z,100.00
2024-02-23T03:54:07.947Z,100.00
2024-02-23T03:56:43.887Z,100.00
2024-02-23T03:59:10.993Z,100.00
2024-02-23T04:01:40.708Z,100.00
2024-02-23T04:04:07.449Z,100.00
2024-02-23T04:06:35.329Z,100.00
2024-02-23T04:09:01.930Z,100.00
2024-02-23T04:11:28.357Z,100.00
2024-02-23T04:13:54.851Z,100.00
2024-02-23T04:16:24.794Z,100.00
2024-02-23T04:18:51.968Z,100.00
2024-02-23T04:21:18.373Z,100.00
2024-02-23T04:23:44.816Z,100.00
2024-02-23T04:26:11.300Z,100.00
2024-02-23T04:28:41.544Z,100.00
2024-02-23T04:31:10.136Z,100.00
2024-02-23T04:33:37.692Z,100.00
2024-02-23T04:36:04.952Z,100.00
2024-02-23T04:38:31.838Z,100.00
2024-02-23T04:40:59.010Z,100.00
2024-02-23T04:43:26.295Z,100.00
2024-02-23T04:45:52.784Z,100.00
2024-02-23T04:48:19.212Z,100.00
2024-02-23T04:50:45.621Z,100.00
2024-02-23T04:53:12.112Z,100.00
2024-02-23T04:55:38.526Z,100.00
2024-02-23T04:58:05.135Z,100.00
2024-02-23T05:00:34.195Z,100.00
2024-02-23T05:03:04.077Z,100.00
2024-02-23T05:05:31.744Z,100.00
2024-02-23T05:07:58.542Z,100.00
2024-02-23T05:10:25.050Z,100.00
2024-02-23T05:12:51.686Z,100.00
2024-02-23T05:15:18.081Z,100.00
2024-02-23T05:17:44.511Z,100.00
2024-02-23T05:20:11.803Z,100.00
2024-02-23T05:22:39.346Z,100.00
2024-02-23T05:25:06.282Z,100.00
2024-02-23T05:27:32.885Z,100.00
2024-02-23T05:29:59.476Z,100.00
2024-02-23T05:32:25.881Z,100.00
2024-02-23T05:34:54.071Z,100.00
2024-02-23T05:37:20.949Z,100.00
2024-02-23T05:39:48.150Z,100.00
2024-02-23T05:42:14.720Z,100.00
2024-02-23T05:44:44.115Z,100.00
2024-02-23T05:47:11.091Z,100.00
2024-02-23T05:49:37.536Z,100.00
2024-02-23T05:52:04.125Z,100.00
2024-02-23T05:54:30.623Z,100.00
2024-02-23T05:56:57.052Z,100.00
2024-02-23T05:59:23.538Z,100.00
2024-02-23T06:01:49.956Z,100.00
2024-02-23T06:04:16.434Z,100.00
2024-02-23T06:06:44.483Z,100.00
2024-02-23T06:09:11.067Z,100.00
2024-02-23T06:11:37.601Z,100.00
2024-02-23T06:14:04.048Z,100.00
2024-02-23T06:16:30.444Z,100.00
2024-02-23T06:18:56.941Z,100.00
2024-02-23T06:21:23.449Z,100.00
2024-02-23T06:23:49.848Z,100.00
2024-02-23T06:26:16.585Z,100.00
2024-02-23T06:28:43.203Z,100.00
2024-02-23T06:31:10.520Z,100.00
2024-02-23T06:33:37.504Z,100.00
2024-02-23T06:36:05.114Z,100.00
2024-02-23T06:38:31.572Z,100.00
2024-02-23T06:40:57.933Z,100.00
2024-02-23T06:43:24.443Z,100.00
2024-02-23T06:45:51.037Z,100.00
2024-02-23T06:48:17.992Z,100.00
2024-02-23T06:50:44.555Z,100.00
2024-02-23T06:53:11.425Z,100.00
2024-02-23T06:55:37.923Z,100.00
2024-02-23T06:58:05.848Z,100.00
2024-02-23T07:00:32.276Z,100.00
2024-02-23T07:03:04.523Z,100.00
2024-02-23T07:05:31.289Z,100.00
2024-02-23T07:07:58.186Z,100.00
2024-02-23T07:10:26.166Z,100.00
2024-02-23T07:12:54.332Z,100.00
2024-02-23T07:15:21.530Z,100.00
2024-02-23T07:17:48.304Z,100.00
2024-02-23T07:20:15.117Z,100.00
2024-02-23T07:22:45.871Z,100.00
2024-02-23T07:25:12.638Z,100.00
2024-02-23T07:27:39.003Z,100.00
2024-02-23T07:30:06.423Z,100.00
2024-02-23T07:32:33.110Z,100.00
2024-02-23T07:34:59.870Z,100.00
2024-02-23T07:37:29.066Z,100.00
2024-02-23T07:39:55.441Z,100.00
2024-02-23T07:42:21.867Z,100.00
2024-02-23T07:44:48.241Z,100.00
2024-02-23T07:47:14.620Z,100.00
2024-02-23T07:49:43.997Z,100.00
2024-02-23T07:52:10.435Z,100.00
2024-02-23T07:54:36.890Z,100.00
2024-02-23T07:57:05.536Z,100.00
2024-02-23T07:59:32.382Z,100.00
2024-02-23T08:01:58.934Z,100.00
2024-02-23T08:04:25.345Z,100.00
2024-02-23T08:06:52.189Z,100.00
2024-02-23T08:09:18.692Z,100.00
2024-02-23T08:11:45.256Z,100.00
2024-02-23T08:14:12.305Z,100.00
2024-02-23T08:16:38.878Z,100.00
2024-02-23T08:19:05.290Z,100.00
2024-02-23T08:21:31.694Z,100.00
2024-02-23T08:23:58.182Z,100.00
2024-02-23T08:26:24.578Z,100.00
2024-02-23T08:28:50.977Z,100.00
2024-02-23T08:31:17.765Z,100.00
2024-02-23T08:33:44.137Z,99.09
2024-02-23T08:36:11.635Z,98.49
2024-02-23T08:38:38.399Z,99.38
2024-02-23T08:41:05.243Z,98.17
2024-02-23T08:43:31.674Z,96.65
2024-02-23T08:46:02.117Z,97.47
2024-02-23T08:48:31.506Z,98.38
2024-02-23T08:50:57.981Z,97.41
2024-02-23T08:53:24.399Z,98.32
2024-02-23T08:55:50.752Z,98.72
2024-02-23T08:58:17.099Z,99.31
2024-02-23T09:00:43.550Z,100.00
2024-02-23T09:03:09.992Z,100.00
2024-02-23T09:05:36.652Z,99.38
2024-02-23T09:08:03.294Z,99.66
2024-02-23T09:10:29.746Z,99.72
2024-02-23T09:12:56.141Z,100.00
2024-02-23T09:15:22.603Z,100.00
2024-02-23T09:17:49.089Z,100.00
2024-02-23T09:20:15.600Z,99.50
2024-02-23T09:22:42.050Z,99.29
2024-02-23T09:25:09.543Z,99.21
2024-02-23T09:27:39.937Z,97.83
2024-02-23T09:30:08.073Z,97.50
2024-02-23T09:32:34.607Z,97.28
2024-02-23T09:35:01.112Z,95.75
2024-02-23T09:37:27.446Z,99.10
2024-02-23T09:39:53.834Z,96.66
2024-02-23T09:42:24.149Z,95.58
2024-02-23T09:44:58.658Z,95.57
2024-02-23T09:47:26.800Z,95.84
2024-02-23T09:49:54.007Z,95.70
2024-02-23T09:52:21.695Z,97.62
2024-02-23T09:54:48.255Z,98.60
2024-02-23T09:57:16.855Z,96.57
2024-02-23T09:59:43.317Z,96.21
2024-02-23T10:02:13.749Z,95.86
2024-02-23T10:04:40.518Z,96.47
2024-02-23T10:07:07.909Z,94.77
2024-02-23T10:09:34.334Z,94.06
2024-02-23T10:12:00.914Z,94.11
2024-02-23T10:14:27.494Z,93.67
2024-02-23T10:16:55.038Z,94.27
2024-02-23T10:19:22.491Z,97.93
2024-02-23T10:21:49.368Z,93.68
2024-02-23T10:24:18.777Z,92.79
2024-02-23T10:26:45.702Z,92.06
2024-02-23T10:29:13.032Z,92.05
2024-02-23T10:31:40.947Z,92.26
2024-02-23T10:34:13.226Z,90.85
2024-02-23T10:36:43.346Z,91.62
2024-02-23T10:39:10.817Z,89.72
2024-02-23T10:41:40.457Z,89.60
2024-02-23T10:44:08.256Z,90.08
2024-02-23T10:46:35.307Z,88.46
2024-02-23T10:49:04.024Z,89.37
2024-02-23T10:51:31.684Z,91.63
2024-02-23T10:53:58.550Z,91.28
2024-02-23T10:56:26.976Z,91.95
2024-02-23T10:58:53.411Z,93.83
2024-02-23T11:01:21.385Z,91.82
2024-02-23T11:03:51.472Z,91.98
2024-02-23T11:06:22.239Z,97.26
2024-02-23T11:08:49.969Z,95.70
2024-02-23T11:11:18.530Z,94.04
2024-02-23T11:13:46.216Z,95.45
2024-02-23T11:16:23.222Z,100.00
2024-02-23T11:18:49.715Z,100.00
2024-02-23T11:21:16.202Z,100.00
2024-02-23T11:23:44.075Z,100.00
2024-02-23T11:26:12.259Z,96.74
2024-02-23T11:28:55.114Z,93.40
2024-02-23T11:31:24.798Z,96.31
2024-02-23T11:33:53.021Z,95.84
2024-02-23T11:36:29.424Z,93.33
2024-02-23T11:38:58.580Z,97.64
2024-02-23T11:41:26.761Z,94.47
2024-02-23T11:43:55.138Z,92.41
2024-02-23T11:46:22.185Z,93.68
2024-02-23T11:48:54.487Z,89.47
2024-02-23T11:51:22.690Z,88.02
2024-02-23T11:53:49.709Z,86.37
2024-02-23T11:56:16.687Z,87.17
2024-02-23T11:58:43.504Z,84.35
2024-02-23T12:01:10.151Z,86.68
2024-02-23T12:03:36.737Z,86.11
2024-02-23T12:06:03.901Z,86.52
2024-02-23T12:08:38.860Z,88.72
2024-02-23T12:13:33.638Z,88.58
2024-02-23T12:16:00.244Z,86.24
2024-02-23T12:18:30.960Z,83.57
2024-02-23T12:21:06.130Z,83.74
2024-02-23T12:23:46.653Z,82.20
2024-02-23T12:26:15.105Z,85.52
2024-02-23T12:28:42.644Z,82.83
2024-02-23T12:31:09.352Z,82.62
2024-02-23T12:33:37.571Z,83.24
2024-02-23T12:36:05.485Z,84.32
2024-02-23T12:38:32.395Z,85.30
2024-02-23T12:41:00.541Z,88.13
2024-02-23T12:45:58.360Z,86.97
2024-02-23T12:48:24.916Z,86.81
2024-02-23T12:50:52.740Z,84.42
2024-02-23T12:53:35.361Z,80.95
2024-02-23T12:56:03.695Z,84.04
2024-02-23T12:58:30.493Z,81.48
2024-02-23T13:00:57.910Z,81.64
2024-02-23T13:03:26.513Z,82.73
2024-02-23T13:05:53.297Z,84.35
2024-02-23T13:08:19.792Z,81.69
2024-02-23T13:10:46.702Z,80.86
2024-02-23T13:13:15.804Z,75.06
2024-02-23T13:15:43.151Z,77.71
2024-02-23T13:18:10.213Z,76.38
2024-02-23T13:20:38.279Z,77.51
2024-02-23T13:23:05.438Z,76.31
2024-02-23T13:25:32.452Z,74.54
2024-02-23T13:27:58.965Z,72.58
2024-02-23T13:30:25.301Z,73.09
2024-02-23T13:32:52.262Z,70.26
2024-02-23T13:35:18.814Z,69.18
2024-02-23T13:37:45.409Z,67.96
2024-02-23T13:40:12.229Z,72.14
2024-02-23T13:42:39.815Z,70.21
2024-02-23T13:45:09.810Z,70.64
2024-02-23T13:47:36.784Z,72.11
2024-02-23T13:50:03.984Z,72.30
2024-02-23T13:52:31.064Z,74.42
2024-02-23T13:54:57.608Z,73.49
2024-02-23T13:57:24.113Z,75.40
2024-02-23T13:59:50.601Z,73.96
2024-02-23T14:02:19.833Z,71.15
2024-02-23T14:04:46.488Z,72.58
2024-02-23T14:07:13.034Z,72.91
2024-02-23T14:09:39.559Z,74.08
2024-02-23T14:12:06.113Z,75.65
2024-02-23T14:14:32.581Z,76.35
2024-02-23T14:16:59.100Z,71.43
2024-02-23T14:19:26.571Z,71.08
2024-02-23T14:21:53.447Z,72.04
2024-02-23T14:24:19.817Z,71.01
2024-02-23T14:26:46.282Z,71.45
2024-02-23T14:29:12.752Z,70.39
2024-02-23T14:31:39.189Z,73.64
2024-02-23T14:34:05.576Z,78.44
2024-02-23T14:36:34.995Z,80.12
2024-02-23T14:39:01.604Z,83.08
2024-02-23T14:41:28.651Z,85.56
2024-02-23T14:43:55.082Z,86.93
2024-02-23T14:46:21.621Z,88.60
2024-02-23T14:48:49.630Z,88.35
2024-02-23T14:51:17.020Z,88.46
2024-02-23T14:53:43.683Z,89.05
2024-02-23T14:56:10.239Z,89.85
2024-02-23T14:58:36.674Z,89.13
2024-02-23T15:01:03.241Z,90.91
2024-02-23T15:03:29.764Z,88.25
2024-02-23T15:05:56.174Z,91.31
2024-02-23T15:08:22.652Z,91.37
2024-02-23T15:10:49.059Z,92.41
2024-02-23T15:13:15.393Z,94.67
2024-02-23T15:15:43.223Z,94.08
2024-02-23T15:18:09.771Z,94.53
2024-02-23T15:20:36.714Z,96.87
2024-02-23T15:23:03.295Z,97.26
2024-02-23T15:25:29.676Z,96.70
2024-02-23T15:27:58.803Z,97.21
2024-02-23T15:30:28.247Z,98.13
2024-02-23T15:32:55.207Z,98.58
2024-02-23T15:35:21.863Z,97.74
2024-02-23T15:37:48.568Z,97.22
2024-02-23T15:40:16.156Z,96.85
2024-02-23T15:42:43.001Z,95.73
2024-02-23T15:45:09.750Z,96.92
2024-02-23T15:47:36.443Z,98.71
2024-02-23T15:50:22.374Z,97.59
2024-02-23T15:52:49.801Z,96.44
2024-02-23T15:55:16.341Z,96.00
2024-02-23T15:57:44.064Z,94.81
2024-02-23T16:00:13.359Z,94.34
2024-02-23T16:02:40.605Z,93.99
2024-02-23T16:05:08.257Z,93.57
2024-02-23T16:07:34.884Z,93.76
2024-02-23T16:10:01.713Z,93.68
2024-02-23T16:12:28.281Z,94.40
2024-02-23T16:14:54.768Z,93.23
2024-02-23T16:17:21.265Z,93.67
2024-02-23T16:19:47.738Z,95.01
2024-02-23T16:22:14.544Z,95.42
2024-02-23T16:24:42.601Z,94.31
2024-02-23T16:27:09.852Z,95.09
2024-02-23T16:29:36.898Z,96.05
2024-02-23T16:32:03.753Z,95.70
2024-02-23T16:34:30.369Z,97.29
2024-02-23T16:36:56.795Z,96.98
2024-02-23T16:39:23.219Z,98.63
2024-02-23T16:41:49.804Z,98.90
2024-02-23T16:44:20.027Z,99.37
2024-02-23T16:46:47.402Z,100.00
2024-02-23T16:49:13.976Z,100.00
2024-02-23T16:51:41.039Z,100.00
2024-02-23T16:54:07.510Z,99.24
2024-02-23T16:56:33.920Z,99.97
2024-02-23T16:59:00.415Z,99.97
2024-02-23T17:01:27.186Z,99.99
2024-02-23T17:03:53.628Z,100.00
2024-02-23T17:06:20.126Z,99.31
2024-02-23T17:08:46.724Z,99.65
2024-02-23T17:11:13.173Z,100.00
2024-02-23T17:13:39.578Z,100.00
2024-02-23T17:16:06.332Z,99.97
2024-02-23T17:18:32.840Z,100.00
2024-02-23T17:21:01.475Z,100.00
2024-02-23T17:23:28.389Z,100.00
2024-02-23T17:25:54.920Z,100.00
2024-02-23T17:28:21.326Z,100.00
2024-02-23T17:30:47.716Z,100.00
2024-02-23T17:33:14.168Z,100.00
2024-02-23T17:35:40.639Z,100.00
2024-02-23T17:38:07.771Z,100.00
2024-02-23T17:40:34.265Z,100.00
2024-02-23T17:43:00.653Z,100.00
2024-02-23T17:45:27.065Z,100.00
2024-02-23T17:47:55.602Z,100.00
2024-02-23T17:50:22.710Z,100.00
2024-02-23T17:52:49.357Z,100.00
2024-02-23T17:55:15.892Z,100.00
2024-02-23T17:57:42.319Z,100.00
2024-02-23T18:00:08.987Z,100.00
2024-02-23T18:02:35.378Z,100.00
2024-02-23T18:05:01.806Z,100.00
2024-02-23T18:07:28.338Z,100.00
2024-02-23T18:09:54.717Z,100.00
2024-02-23T18:12:21.172Z,100.00
2024-02-23T18:14:47.726Z,100.00
2024-02-23T18:17:14.245Z,100.00
2024-02-23T18:19:43.131Z,100.00
2024-02-23T18:22:10.706Z,100.00
2024-02-23T18:24:37.108Z,100.00
2024-02-23T18:27:03.728Z,100.00
2024-02-23T18:29:30.092Z,100.00
2024-02-23T18:31:56.501Z,100.00
2024-02-23T18:34:22.963Z,100.00
2024-02-23T18:36:49.354Z,100.00
2024-02-23T18:39:15.799Z,100.00
2024-02-23T18:41:42.205Z,100.00
2024-02-23T18:44:13.715Z,100.00
2024-02-23T18:46:40.641Z,100.00
2024-02-23T18:49:07.369Z,100.00
2024-02-23T18:51:33.790Z,100.00
2024-02-23T18:54:00.305Z,100.00
2024-02-23T18:56:26.789Z,100.00
2024-02-23T18:58:53.256Z,100.00
2024-02-23T19:01:19.619Z,100.00
2024-02-23T19:03:46.178Z,100.00
2024-02-23T19:06:13.025Z,100.00
2024-02-23T19:08:39.476Z,100.00
2024-02-23T19:11:06.831Z,100.00
2024-02-23T19:13:33.391Z,100.00
2024-02-23T19:15:59.769Z,100.00
2024-02-23T19:18:26.281Z,100.00
2024-02-23T19:20:52.849Z,100.00
2024-02-23T19:23:19.373Z,100.00
2024-02-23T19:25:45.792Z,100.00
2024-02-23T19:28:12.201Z,100.00
2024-02-23T19:30:43.653Z,100.00
2024-02-23T19:33:11.190Z,100.00
2024-02-23T19:35:37.800Z,100.00
2024-02-23T19:38:04.573Z,100.00
2024-02-23T19:40:31.163Z,100.00
2024-02-23T19:42:57.540Z,100.00
2024-02-23T19:45:26.434Z,100.00
2024-02-23T19:47:53.149Z,100.00
2024-02-23T19:50:19.630Z,100.00
2024-02-23T19:52:46.060Z,100.00
2024-02-23T19:55:12.432Z,100.00
2024-02-23T19:57:38.821Z,100.00
2024-02-23T20:00:07.563Z,100.00
2024-02-23T20:02:34.011Z,100.00
2024-02-23T20:05:00.623Z,100.00
2024-02-23T20:07:27.080Z,100.00
2024-02-23T20:09:53.603Z,100.00
2024-02-23T20:12:20.526Z,100.00
2024-02-23T20:14:47.813Z,100.00
2024-02-23T20:17:15.767Z,100.00
2024-02-23T20:19:42.367Z,100.00
2024-02-23T20:22:08.855Z,100.00
2024-02-23T20:24:36.869Z,100.00
2024-02-23T20:27:07.263Z,100.00
2024-02-23T20:29:36.949Z,100.00
2024-02-23T20:32:10.653Z,100.00
2024-02-23T20:34:42.586Z,100.00
2024-02-23T20:37:09.593Z,100.00
2024-02-23T20:39:36.045Z,100.00
2024-02-23T20:42:03.540Z,100.00
2024-02-23T20:44:30.026Z,100.00
2024-02-23T20:46:58.405Z,100.00
2024-02-23T20:49:26.327Z,100.00
2024-02-23T20:51:56.108Z,100.00
2024-02-23T20:54:22.653Z,100.00
2024-02-23T20:56:49.327Z,100.00
2024-02-23T20:59:15.723Z,100.00
2024-02-23T21:01:42.099Z,100.00
2024-02-23T21:04:08.467Z,100.00
2024-02-23T21:06:34.886Z,100.00
2024-02-23T21:09:01.805Z,100.00
2024-02-23T21:11:29.677Z,100.00
2024-02-23T21:13:56.519Z,100.00
2024-02-23T21:16:22.964Z,100.00
2024-02-23T21:18:49.630Z,100.00
2024-02-23T21:21:21.047Z,100.00
2024-02-23T21:23:48.229Z,100.00
2024-02-23T21:26:14.594Z,100.00
2024-02-23T21:28:41.105Z,100.00
2024-02-23T21:31:07.571Z,100.00
2024-02-23T21:33:34.073Z,100.00
2024-02-23T21:36:00.702Z,100.00
2024-02-23T21:38:27.227Z,100.00
2024-02-23T21:40:53.637Z,100.00
2024-02-23T21:43:20.027Z,100.00
2024-02-23T21:45:46.400Z,100.00
2024-02-23T21:48:12.890Z,100.00
2024-02-23T21:50:39.433Z,100.00
2024-02-23T21:53:05.851Z,100.00
2024-02-23T21:55:32.258Z,100.00
2024-02-23T21:57:58.894Z,100.00
2024-02-23T22:00:25.544Z,100.00
2024-02-23T22:02:51.910Z,100.00
2024-02-23T22:05:18.596Z,100.00
2024-02-23T22:07:45.039Z,100.00
2024-02-23T22:10:11.413Z,100.00
2024-02-23T22:12:37.842Z,100.00
2024-02-23T22:15:04.979Z,100.00
2024-02-23T22:17:31.445Z,100.00
2024-02-23T22:19:57.847Z,100.00
2024-02-23T22:22:25.607Z,100.00
2024-02-23T22:24:51.977Z,100.00
2024-02-23T22:27:18.384Z,100.00
2024-02-23T22:29:46.441Z,100.00
2024-02-23T22:32:13.068Z,100.00
2024-02-23T22:34:40.001Z,100.00
2024-02-23T22:37:06.521Z,100.00
2024-02-23T22:39:32.895Z,100.00
2024-02-23T22:41:59.434Z,100.00
2024-02-23T22:44:26.152Z,100.00
2024-02-23T22:46:55.520Z,100.00
2024-02-23T22:49:22.039Z,100.00
2024-02-23T22:51:48.422Z,100.00
2024-02-23T22:54:14.893Z,100.00
2024-02-23T22:56:41.512Z,100.00
2024-02-23T22:59:11.075Z,100.00
2024-02-23T23:01:40.837Z,100.00
2024-02-23T23:04:07.753Z,100.00
2024-02-23T23:06:35.545Z,100.00
2024-02-23T23:09:03.236Z,100.00
2024-02-23T23:11:29.872Z,100.00
2024-02-23T23:13:58.135Z,100.00
2024-02-23T23:16:24.754Z,100.00
2024-02-23T23:18:51.238Z,100.00
2024-02-23T23:21:17.685Z,100.00
2024-02-23T23:23:44.108Z,100.00
2024-02-23T23:26:10.617Z,100.00
2024-02-23T23:28:37.065Z,100.00
2024-02-23T23:31:03.599Z,100.00
2024-02-23T23:33:30.121Z,100.00
2024-02-23T23:35:56.623Z,100.00
2024-02-23T23:38:23.118Z,100.00
2024-02-23T23:40:49.462Z,100.00
2024-02-23T23:43:15.823Z,100.00
2024-02-23T23:45:42.278Z,100.00
2024-02-23T23:48:11.091Z,100.00
2024-02-23T23:50:38.155Z,100.00
2024-02-23T23:53:05.037Z,100.00
2024-02-23T23:55:31.439Z,100.00
2024-02-23T23:57:58.100Z,100.00
